sensor_id;sensor_type;location;lat;lon;timestamp;temperature;humidity
28189;DHT22;15471;51.166;4.470;2023-05-23T00:01:06;13.90;99.90
28189;DHT22;15471;51.166;4.470;2023-05-23T00:03:35;13.90;99.90
28189;DHT22;15471;51.166;4.470;2023-05-23T00:06:04;13.90;99.90
28189;DHT22;15471;51.166;4.470;2023-05-23T00:08:30;13.90;99.90
28189;DHT22;15471;51.166;4.470;2023-05-23T00:10:57;13.90;99.90
28189;DHT22;15471;51.166;4.470;2023-05-23T00:13:23;14.00;99.90
28189;DHT22;15471;51.166;4.470;2023-05-23T00:15:49;13.90;99.90
28189;DHT22;15471;51.166;4.470;2023-05-23T00:18:15;13.90;99.90
28189;DHT22;15471;51.166;4.470;2023-05-23T00:20:42;13.90;99.90
28189;DHT22;15471;51.166;4.470;2023-05-23T00:23:18;13.90;99.90
28189;DHT22;15471;51.166;4.470;2023-05-23T00:25:45;13.90;99.90
28189;DHT22;15471;51.166;4.470;2023-05-23T00:28:21;13.90;99.90
28189;DHT22;15471;51.166;4.470;2023-05-23T00:30:47;13.80;99.90
28189;DHT22;15471;51.166;4.470;2023-05-23T00:33:15;13.80;99.90
28189;DHT22;15471;51.166;4.470;2023-05-23T00:35:42;13.80;99.90
28189;DHT22;15471;51.166;4.470;2023-05-23T00:38:09;13.90;99.90
28189;DHT22;15471;51.166;4.470;2023-05-23T00:40:36;13.90;99.90
28189;DHT22;15471;51.166;4.470;2023-05-23T00:43:02;13.80;99.90
28189;DHT22;15471;51.166;4.470;2023-05-23T00:45:28;13.90;99.90
28189;DHT22;15471;51.166;4.470;2023-05-23T00:47:54;13.90;99.90
28189;DHT22;15471;51.166;4.470;2023-05-23T00:50:21;13.90;99.90
28189;DHT22;15471;51.166;4.470;2023-05-23T00:52:48;13.90;99.90
28189;DHT22;15471;51.166;4.470;2023-05-23T00:55:14;13.90;99.90
28189;DHT22;15471;51.166;4.470;2023-05-23T00:57:41;13.90;99.90
28189;DHT22;15471;51.166;4.470;2023-05-23T01:00:12;13.90;99.90
28189;DHT22;15471;51.166;4.470;2023-05-23T01:02:47;13.90;99.90
28189;DHT22;15471;51.166;4.470;2023-05-23T01:05:17;13.90;99.90
28189;DHT22;15471;51.166;4.470;2023-05-23T01:07:51;13.80;99.90
28189;DHT22;15471;51.166;4.470;2023-05-23T01:10:20;13.80;99.90
28189;DHT22;15471;51.166;4.470;2023-05-23T01:12:54;13.80;99.90
28189;DHT22;15471;51.166;4.470;2023-05-23T01:15:27;13.80;99.90
28189;DHT22;15471;51.166;4.470;2023-05-23T01:20:38;13.80;99.90
28189;DHT22;15471;51.166;4.470;2023-05-23T01:29:01;13.80;99.90
28189;DHT22;15471;51.166;4.470;2023-05-23T01:31:31;13.80;99.90
28189;DHT22;15471;51.166;4.470;2023-05-23T01:34:00;13.80;99.90
28189;DHT22;15471;51.166;4.470;2023-05-23T01:36:27;13.70;99.90
28189;DHT22;15471;51.166;4.470;2023-05-23T01:38:53;13.70;99.90
28189;DHT22;15471;51.166;4.470;2023-05-23T01:41:19;13.70;99.90
28189;DHT22;15471;51.166;4.470;2023-05-23T01:43:46;13.70;99.90
28189;DHT22;15471;51.166;4.470;2023-05-23T01:46:13;13.70;99.90
28189;DHT22;15471;51.166;4.470;2023-05-23T01:48:40;13.70;99.90
28189;DHT22;15471;51.166;4.470;2023-05-23T01:51:07;13.80;99.90
28189;DHT22;15471;51.166;4.470;2023-05-23T01:53:34;13.90;99.90
28189;DHT22;15471;51.166;4.470;2023-05-23T01:56:02;13.90;99.90
28189;DHT22;15471;51.166;4.470;2023-05-23T01:58:29;13.80;99.90
28189;DHT22;15471;51.166;4.470;2023-05-23T02:00:56;13.80;99.90
28189;DHT22;15471;51.166;4.470;2023-05-23T02:03:22;13.80;99.90
28189;DHT22;15471;51.166;4.470;2023-05-23T02:05:49;13.70;99.90
28189;DHT22;15471;51.166;4.470;2023-05-23T02:08:17;13.70;99.90
28189;DHT22;15471;51.166;4.470;2023-05-23T02:10:44;13.60;99.90
28189;DHT22;15471;51.166;4.470;2023-05-23T02:13:10;13.60;99.90
28189;DHT22;15471;51.166;4.470;2023-05-23T02:15:36;13.60;99.90
28189;DHT22;15471;51.166;4.470;2023-05-23T02:18:02;13.60;99.90
28189;DHT22;15471;51.166;4.470;2023-05-23T02:20:29;13.50;99.90
28189;DHT22;15471;51.166;4.470;2023-05-23T02:22:55;13.50;99.90
28189;DHT22;15471;51.166;4.470;2023-05-23T02:25:21;13.40;99.90
28189;DHT22;15471;51.166;4.470;2023-05-23T02:27:48;13.40;99.90
28189;DHT22;15471;51.166;4.470;2023-05-23T02:30:17;13.40;99.90
28189;DHT22;15471;51.166;4.470;2023-05-23T02:32:43;13.30;99.90
28189;DHT22;15471;51.166;4.470;2023-05-23T02:35:10;13.20;99.90
28189;DHT22;15471;51.166;4.470;2023-05-23T02:37:36;13.20;99.90
28189;DHT22;15471;51.166;4.470;2023-05-23T02:40:04;13.10;99.90
28189;DHT22;15471;51.166;4.470;2023-05-23T02:42:33;13.10;99.90
28189;DHT22;15471;51.166;4.470;2023-05-23T02:45:00;13.10;99.90
28189;DHT22;15471;51.166;4.470;2023-05-23T02:47:27;13.10;99.90
28189;DHT22;15471;51.166;4.470;2023-05-23T02:49:53;13.00;99.90
28189;DHT22;15471;51.166;4.470;2023-05-23T02:52:19;13.00;99.90
28189;DHT22;15471;51.166;4.470;2023-05-23T02:54:45;13.00;99.90
28189;DHT22;15471;51.166;4.470;2023-05-23T02:57:12;12.90;99.90
28189;DHT22;15471;51.166;4.470;2023-05-23T02:59:40;12.90;99.90
28189;DHT22;15471;51.166;4.470;2023-05-23T03:02:10;12.90;99.90
28189;DHT22;15471;51.166;4.470;2023-05-23T03:04:36;12.90;99.90
28189;DHT22;15471;51.166;4.470;2023-05-23T03:07:03;13.00;99.90
28189;DHT22;15471;51.166;4.470;2023-05-23T03:09:31;12.90;99.90
28189;DHT22;15471;51.166;4.470;2023-05-23T03:11:57;13.00;99.90
28189;DHT22;15471;51.166;4.470;2023-05-23T03:14:23;13.00;99.90
28189;DHT22;15471;51.166;4.470;2023-05-23T03:16:50;13.00;99.90
28189;DHT22;15471;51.166;4.470;2023-05-23T03:19:16;13.00;99.90
28189;DHT22;15471;51.166;4.470;2023-05-23T03:21:46;13.00;99.90
28189;DHT22;15471;51.166;4.470;2023-05-23T03:24:12;13.00;99.90
28189;DHT22;15471;51.166;4.470;2023-05-23T03:26:38;13.10;99.90
28189;DHT22;15471;51.166;4.470;2023-05-23T03:29:04;13.20;99.90
28189;DHT22;15471;51.166;4.470;2023-05-23T03:31:31;13.40;99.90
28189;DHT22;15471;51.166;4.470;2023-05-23T03:33:57;13.40;99.90
28189;DHT22;15471;51.166;4.470;2023-05-23T03:36:24;13.40;99.90
28189;DHT22;15471;51.166;4.470;2023-05-23T03:38:52;13.40;99.90
28189;DHT22;15471;51.166;4.470;2023-05-23T03:41:18;13.30;99.90
28189;DHT22;15471;51.166;4.470;2023-05-23T03:43:45;13.30;99.90
28189;DHT22;15471;51.166;4.470;2023-05-23T03:46:12;13.30;99.90
28189;DHT22;15471;51.166;4.470;2023-05-23T03:48:38;13.40;99.90
28189;DHT22;15471;51.166;4.470;2023-05-23T03:51:05;13.40;99.90
28189;DHT22;15471;51.166;4.470;2023-05-23T03:53:31;13.50;99.90
28189;DHT22;15471;51.166;4.470;2023-05-23T03:55:58;13.50;99.90
28189;DHT22;15471;51.166;4.470;2023-05-23T03:58:25;13.50;99.90
28189;DHT22;15471;51.166;4.470;2023-05-23T04:00:55;13.50;99.90
28189;DHT22;15471;51.166;4.470;2023-05-23T04:03:22;13.50;99.90
28189;DHT22;15471;51.166;4.470;2023-05-23T04:05:51;13.40;99.90
28189;DHT22;15471;51.166;4.470;2023-05-23T04:08:17;13.40;99.90
28189;DHT22;15471;51.166;4.470;2023-05-23T04:10:49;13.40;99.90
28189;DHT22;15471;51.166;4.470;2023-05-23T04:13:15;13.40;99.90
28189;DHT22;15471;51.166;4.470;2023-05-23T04:15:41;13.50;99.90
28189;DHT22;15471;51.166;4.470;2023-05-23T04:18:10;13.50;99.90
28189;DHT22;15471;51.166;4.470;2023-05-23T04:20:37;13.50;99.90
28189;DHT22;15471;51.166;4.470;2023-05-23T04:23:07;13.40;99.90
28189;DHT22;15471;51.166;4.470;2023-05-23T04:25:37;13.50;99.90
28189;DHT22;15471;51.166;4.470;2023-05-23T04:28:19;13.50;99.90
28189;DHT22;15471;51.166;4.470;2023-05-23T04:30:46;13.50;99.90
28189;DHT22;15471;51.166;4.470;2023-05-23T04:33:18;13.50;99.90
28189;DHT22;15471;51.166;4.470;2023-05-23T04:35:44;13.60;99.90
28189;DHT22;15471;51.166;4.470;2023-05-23T04:38:11;13.50;99.90
28189;DHT22;15471;51.166;4.470;2023-05-23T04:40:39;13.50;99.90
28189;DHT22;15471;51.166;4.470;2023-05-23T04:43:29;13.60;99.90
28189;DHT22;15471;51.166;4.470;2023-05-23T04:46:11;13.40;99.90
28189;DHT22;15471;51.166;4.470;2023-05-23T04:48:43;13.40;99.90
28189;DHT22;15471;51.166;4.470;2023-05-23T04:51:10;13.40;99.90
28189;DHT22;15471;51.166;4.470;2023-05-23T04:53:51;13.30;99.90
28189;DHT22;15471;51.166;4.470;2023-05-23T04:56:18;13.20;99.90
28189;DHT22;15471;51.166;4.470;2023-05-23T04:58:46;13.20;99.90
28189;DHT22;15471;51.166;4.470;2023-05-23T05:01:14;13.20;99.90
28189;DHT22;15471;51.166;4.470;2023-05-23T05:03:41;13.20;99.90
28189;DHT22;15471;51.166;4.470;2023-05-23T05:06:07;13.20;99.90
28189;DHT22;15471;51.166;4.470;2023-05-23T05:08:34;13.20;99.90
28189;DHT22;15471;51.166;4.470;2023-05-23T05:11:01;13.30;99.90
28189;DHT22;15471;51.166;4.470;2023-05-23T05:13:31;13.20;99.90
28189;DHT22;15471;51.166;4.470;2023-05-23T05:15:58;13.20;99.90
28189;DHT22;15471;51.166;4.470;2023-05-23T05:18:29;13.20;99.90
28189;DHT22;15471;51.166;4.470;2023-05-23T05:20:57;13.20;99.90
28189;DHT22;15471;51.166;4.470;2023-05-23T05:23:30;13.10;99.90
28189;DHT22;15471;51.166;4.470;2023-05-23T05:26:09;13.10;99.90
28189;DHT22;15471;51.166;4.470;2023-05-23T05:28:36;13.10;99.90
28189;DHT22;15471;51.166;4.470;2023-05-23T05:31:03;13.00;99.90
28189;DHT22;15471;51.166;4.470;2023-05-23T05:33:33;13.00;99.90
28189;DHT22;15471;51.166;4.470;2023-05-23T05:36:07;12.90;99.90
28189;DHT22;15471;51.166;4.470;2023-05-23T05:38:33;12.80;99.90
28189;DHT22;15471;51.166;4.470;2023-05-23T05:41:00;12.80;99.90
28189;DHT22;15471;51.166;4.470;2023-05-23T05:43:31;12.80;99.90
28189;DHT22;15471;51.166;4.470;2023-05-23T05:46:00;12.80;99.90
28189;DHT22;15471;51.166;4.470;2023-05-23T05:48:26;12.80;99.90
28189;DHT22;15471;51.166;4.470;2023-05-23T05:50:56;12.80;99.90
28189;DHT22;15471;51.166;4.470;2023-05-23T05:53:26;12.80;99.90
28189;DHT22;15471;51.166;4.470;2023-05-23T05:55:53;12.90;99.90
28189;DHT22;15471;51.166;4.470;2023-05-23T05:58:20;12.90;99.90
28189;DHT22;15471;51.166;4.470;2023-05-23T06:01:13;12.90;99.90
28189;DHT22;15471;51.166;4.470;2023-05-23T06:03:39;12.90;99.90
28189;DHT22;15471;51.166;4.470;2023-05-23T06:06:06;12.90;99.90
28189;DHT22;15471;51.166;4.470;2023-05-23T06:08:33;13.00;99.90
28189;DHT22;15471;51.166;4.470;2023-05-23T06:10:59;13.00;99.90
28189;DHT22;15471;51.166;4.470;2023-05-23T06:13:28;13.00;99.90
28189;DHT22;15471;51.166;4.470;2023-05-23T06:15:54;13.00;99.90
28189;DHT22;15471;51.166;4.470;2023-05-23T06:18:22;13.20;99.90
28189;DHT22;15471;51.166;4.470;2023-05-23T06:20:50;13.30;99.90
28189;DHT22;15471;51.166;4.470;2023-05-23T06:23:17;13.40;99.90
28189;DHT22;15471;51.166;4.470;2023-05-23T06:25:47;13.20;99.90
28189;DHT22;15471;51.166;4.470;2023-05-23T06:28:13;13.20;99.90
28189;DHT22;15471;51.166;4.470;2023-05-23T06:30:39;13.10;99.90
28189;DHT22;15471;51.166;4.470;2023-05-23T06:33:07;13.10;99.90
28189;DHT22;15471;51.166;4.470;2023-05-23T06:35:33;13.00;99.90
28189;DHT22;15471;51.166;4.470;2023-05-23T06:38:00;13.00;99.90
28189;DHT22;15471;51.166;4.470;2023-05-23T06:40:26;13.10;99.90
28189;DHT22;15471;51.166;4.470;2023-05-23T06:42:52;13.20;99.90
28189;DHT22;15471;51.166;4.470;2023-05-23T06:45:40;13.10;99.90
28189;DHT22;15471;51.166;4.470;2023-05-23T06:48:10;13.10;99.90
28189;DHT22;15471;51.166;4.470;2023-05-23T06:50:36;13.10;99.90
28189;DHT22;15471;51.166;4.470;2023-05-23T06:53:03;13.00;99.90
28189;DHT22;15471;51.166;4.470;2023-05-23T06:55:36;13.00;99.90
28189;DHT22;15471;51.166;4.470;2023-05-23T06:58:06;13.30;99.90
28189;DHT22;15471;51.166;4.470;2023-05-23T07:00:38;13.50;99.90
28189;DHT22;15471;51.166;4.470;2023-05-23T07:03:17;13.80;99.90
28189;DHT22;15471;51.166;4.470;2023-05-23T07:05:46;13.90;99.90
28189;DHT22;15471;51.166;4.470;2023-05-23T07:08:15;13.80;99.90
28189;DHT22;15471;51.166;4.470;2023-05-23T07:10:56;13.60;99.90
28189;DHT22;15471;51.166;4.470;2023-05-23T07:13:33;13.40;99.90
28189;DHT22;15471;51.166;4.470;2023-05-23T07:15:59;13.30;99.90
28189;DHT22;15471;51.166;4.470;2023-05-23T07:18:26;13.40;99.90
28189;DHT22;15471;51.166;4.470;2023-05-23T07:20:55;13.60;99.90
28189;DHT22;15471;51.166;4.470;2023-05-23T07:23:30;13.60;99.90
28189;DHT22;15471;51.166;4.470;2023-05-23T07:26:01;13.90;99.90
28189;DHT22;15471;51.166;4.470;2023-05-23T07:28:32;14.20;99.90
28189;DHT22;15471;51.166;4.470;2023-05-23T07:31:06;14.40;99.90
28189;DHT22;15471;51.166;4.470;2023-05-23T07:33:37;14.20;99.90
28189;DHT22;15471;51.166;4.470;2023-05-23T07:36:05;14.10;99.90
28189;DHT22;15471;51.166;4.470;2023-05-23T07:38:31;14.00;99.90
28189;DHT22;15471;51.166;4.470;2023-05-23T07:40:58;14.00;99.90
28189;DHT22;15471;51.166;4.470;2023-05-23T07:43:24;13.90;99.90
28189;DHT22;15471;51.166;4.470;2023-05-23T07:45:50;14.00;99.90
28189;DHT22;15471;51.166;4.470;2023-05-23T07:48:16;14.10;99.90
28189;DHT22;15471;51.166;4.470;2023-05-23T07:50:43;14.10;99.90
28189;DHT22;15471;51.166;4.470;2023-05-23T07:53:09;14.20;99.90
28189;DHT22;15471;51.166;4.470;2023-05-23T07:55:39;14.10;99.90
28189;DHT22;15471;51.166;4.470;2023-05-23T07:58:06;14.30;99.90
28189;DHT22;15471;51.166;4.470;2023-05-23T08:00:35;14.40;99.90
28189;DHT22;15471;51.166;4.470;2023-05-23T08:03:10;14.30;99.90
28189;DHT22;15471;51.166;4.470;2023-05-23T08:05:47;14.20;99.90
28189;DHT22;15471;51.166;4.470;2023-05-23T08:08:13;14.10;99.90
28189;DHT22;15471;51.166;4.470;2023-05-23T08:10:39;13.90;99.90
28189;DHT22;15471;51.166;4.470;2023-05-23T08:13:10;13.90;99.90
28189;DHT22;15471;51.166;4.470;2023-05-23T08:15:46;13.80;99.90
28189;DHT22;15471;51.166;4.470;2023-05-23T08:18:22;13.70;99.90
28189;DHT22;15471;51.166;4.470;2023-05-23T08:20:48;13.70;99.90
28189;DHT22;15471;51.166;4.470;2023-05-23T08:23:14;13.50;99.90
28189;DHT22;15471;51.166;4.470;2023-05-23T08:25:42;13.50;99.90
28189;DHT22;15471;51.166;4.470;2023-05-23T08:28:10;13.60;99.90
28189;DHT22;15471;51.166;4.470;2023-05-23T08:30:42;13.60;99.90
28189;DHT22;15471;51.166;4.470;2023-05-23T08:33:08;13.50;99.90
28189;DHT22;15471;51.166;4.470;2023-05-23T08:35:38;13.50;99.90
28189;DHT22;15471;51.166;4.470;2023-05-23T08:38:09;13.60;99.90
28189;DHT22;15471;51.166;4.470;2023-05-23T08:40:40;13.70;99.90
28189;DHT22;15471;51.166;4.470;2023-05-23T08:43:10;13.70;99.90
28189;DHT22;15471;51.166;4.470;2023-05-23T08:45:37;13.80;99.90
28189;DHT22;15471;51.166;4.470;2023-05-23T08:48:07;13.70;99.90
28189;DHT22;15471;51.166;4.470;2023-05-23T08:50:39;13.70;99.90
28189;DHT22;15471;51.166;4.470;2023-05-23T08:53:08;13.80;99.90
28189;DHT22;15471;51.166;4.470;2023-05-23T08:55:37;14.10;99.90
28189;DHT22;15471;51.166;4.470;2023-05-23T08:58:04;14.00;99.90
28189;DHT22;15471;51.166;4.470;2023-05-23T09:00:46;14.00;99.90
28189;DHT22;15471;51.166;4.470;2023-05-23T09:03:12;14.20;99.90
28189;DHT22;15471;51.166;4.470;2023-05-23T09:05:58;14.60;99.90
28189;DHT22;15471;51.166;4.470;2023-05-23T09:08:24;14.90;99.90
28189;DHT22;15471;51.166;4.470;2023-05-23T09:10:55;15.10;99.90
28189;DHT22;15471;51.166;4.470;2023-05-23T09:13:25;15.20;99.90
28189;DHT22;15471;51.166;4.470;2023-05-23T09:16:03;15.10;99.90
28189;DHT22;15471;51.166;4.470;2023-05-23T09:18:41;15.10;99.90
28189;DHT22;15471;51.166;4.470;2023-05-23T09:21:11;14.90;99.90
28189;DHT22;15471;51.166;4.470;2023-05-23T09:23:47;15.00;99.90
28189;DHT22;15471;51.166;4.470;2023-05-23T09:26:14;15.20;99.90
28189;DHT22;15471;51.166;4.470;2023-05-23T09:28:42;15.40;99.90
28189;DHT22;15471;51.166;4.470;2023-05-23T09:31:09;15.50;99.90
28189;DHT22;15471;51.166;4.470;2023-05-23T09:33:46;15.40;99.90
28189;DHT22;15471;51.166;4.470;2023-05-23T09:36:17;15.30;99.90
28189;DHT22;15471;51.166;4.470;2023-05-23T09:38:46;15.40;99.90
28189;DHT22;15471;51.166;4.470;2023-05-23T09:41:19;15.40;99.90
28189;DHT22;15471;51.166;4.470;2023-05-23T09:43:52;15.60;99.90
28189;DHT22;15471;51.166;4.470;2023-05-23T09:46:20;15.70;99.90
28189;DHT22;15471;51.166;4.470;2023-05-23T09:48:48;16.10;99.90
28189;DHT22;15471;51.166;4.470;2023-05-23T09:51:23;16.50;99.90
28189;DHT22;15471;51.166;4.470;2023-05-23T09:53:52;16.60;99.90
28189;DHT22;15471;51.166;4.470;2023-05-23T09:56:26;16.20;99.90
28189;DHT22;15471;51.166;4.470;2023-05-23T09:58:54;16.00;99.90
28189;DHT22;15471;51.166;4.470;2023-05-23T10:01:22;15.60;99.90
28189;DHT22;15471;51.166;4.470;2023-05-23T10:03:52;15.50;99.90
28189;DHT22;15471;51.166;4.470;2023-05-23T10:06:48;15.70;99.90
28189;DHT22;15471;51.166;4.470;2023-05-23T10:15:05;16.50;99.90
28189;DHT22;15471;51.166;4.470;2023-05-23T10:17:38;16.40;99.90
28189;DHT22;15471;51.166;4.470;2023-05-23T10:20:15;16.10;99.90
28189;DHT22;15471;51.166;4.470;2023-05-23T10:22:54;16.20;99.90
28189;DHT22;15471;51.166;4.470;2023-05-23T10:25:31;16.10;99.90
28189;DHT22;15471;51.166;4.470;2023-05-23T10:28:17;16.20;99.90
28189;DHT22;15471;51.166;4.470;2023-05-23T10:33:44;16.90;99.90
28189;DHT22;15471;51.166;4.470;2023-05-23T10:36:31;17.10;99.90
28189;DHT22;15471;51.166;4.470;2023-05-23T10:39:15;17.10;99.90
28189;DHT22;15471;51.166;4.470;2023-05-23T10:42:03;17.00;99.90
28189;DHT22;15471;51.166;4.470;2023-05-23T10:44:32;17.10;99.90
28189;DHT22;15471;51.166;4.470;2023-05-23T10:46:59;17.40;99.90
28189;DHT22;15471;51.166;4.470;2023-05-23T10:49:45;17.60;99.90
28189;DHT22;15471;51.166;4.470;2023-05-23T10:52:15;17.20;99.90
28189;DHT22;15471;51.166;4.470;2023-05-23T10:54:47;16.90;99.90
28189;DHT22;15471;51.166;4.470;2023-05-23T10:57:24;16.50;99.90
28189;DHT22;15471;51.166;4.470;2023-05-23T10:59:53;16.40;99.90
28189;DHT22;15471;51.166;4.470;2023-05-23T11:02:25;16.70;99.90
28189;DHT22;15471;51.166;4.470;2023-05-23T11:05:20;16.70;99.90
28189;DHT22;15471;51.166;4.470;2023-05-23T11:08:07;16.50;99.90
28189;DHT22;15471;51.166;4.470;2023-05-23T11:10:53;16.90;99.90
28189;DHT22;15471;51.166;4.470;2023-05-23T11:13:23;17.00;99.90
28189;DHT22;15471;51.166;4.470;2023-05-23T11:15:52;16.70;99.90
28189;DHT22;15471;51.166;4.470;2023-05-23T11:18:26;16.90;99.90
28189;DHT22;15471;51.166;4.470;2023-05-23T11:20:55;17.00;99.90
28189;DHT22;15471;51.166;4.470;2023-05-23T11:23:39;16.90;99.90
28189;DHT22;15471;51.166;4.470;2023-05-23T11:26:30;17.20;99.90
28189;DHT22;15471;51.166;4.470;2023-05-23T11:28:59;17.80;99.90
28189;DHT22;15471;51.166;4.470;2023-05-23T11:31:33;18.20;99.90
28189;DHT22;15471;51.166;4.470;2023-05-23T11:34:03;18.30;99.90
28189;DHT22;15471;51.166;4.470;2023-05-23T11:36:34;17.90;99.90
28189;DHT22;15471;51.166;4.470;2023-05-23T11:39:06;17.90;99.90
28189;DHT22;15471;51.166;4.470;2023-05-23T11:41:41;17.90;99.90
28189;DHT22;15471;51.166;4.470;2023-05-23T11:44:11;18.00;99.90
28189;DHT22;15471;51.166;4.470;2023-05-23T11:46:38;17.60;99.90
28189;DHT22;15471;51.166;4.470;2023-05-23T11:49:10;17.20;99.90
28189;DHT22;15471;51.166;4.470;2023-05-23T11:51:37;17.30;99.90
28189;DHT22;15471;51.166;4.470;2023-05-23T11:54:03;17.30;99.90
28189;DHT22;15471;51.166;4.470;2023-05-23T11:56:37;17.00;99.90
28189;DHT22;15471;51.166;4.470;2023-05-23T11:59:03;16.90;99.90
28189;DHT22;15471;51.166;4.470;2023-05-23T12:01:30;16.90;99.90
28189;DHT22;15471;51.166;4.470;2023-05-23T12:03:56;17.00;99.90
28189;DHT22;15471;51.166;4.470;2023-05-23T12:06:25;17.00;99.90
28189;DHT22;15471;51.166;4.470;2023-05-23T12:08:52;17.50;99.90
28189;DHT22;15471;51.166;4.470;2023-05-23T12:11:18;18.00;99.90
28189;DHT22;15471;51.166;4.470;2023-05-23T12:13:44;18.40;99.90
28189;DHT22;15471;51.166;4.470;2023-05-23T12:16:12;18.30;99.90
28189;DHT22;15471;51.166;4.470;2023-05-23T12:18:43;18.20;99.90
28189;DHT22;15471;51.166;4.470;2023-05-23T12:21:08;17.90;99.90
28189;DHT22;15471;51.166;4.470;2023-05-23T12:23:35;17.70;99.90
28189;DHT22;15471;51.166;4.470;2023-05-23T12:26:05;17.60;99.90
28189;DHT22;15471;51.166;4.470;2023-05-23T12:28:39;17.60;99.90
28189;DHT22;15471;51.166;4.470;2023-05-23T12:31:11;17.70;99.90
28189;DHT22;15471;51.166;4.470;2023-05-23T12:36:33;17.70;99.90
28189;DHT22;15471;51.166;4.470;2023-05-23T12:39:03;17.70;99.90
28189;DHT22;15471;51.166;4.470;2023-05-23T12:41:32;17.70;99.90
28189;DHT22;15471;51.166;4.470;2023-05-23T12:43:59;17.80;99.90
28189;DHT22;15471;51.166;4.470;2023-05-23T12:46:25;17.60;99.90
28189;DHT22;15471;51.166;4.470;2023-05-23T12:48:53;17.90;99.90
28189;DHT22;15471;51.166;4.470;2023-05-23T12:51:20;18.00;99.90
28189;DHT22;15471;51.166;4.470;2023-05-23T12:53:46;17.90;99.90
28189;DHT22;15471;51.166;4.470;2023-05-23T12:56:12;17.40;99.90
28189;DHT22;15471;51.166;4.470;2023-05-23T12:58:38;17.20;99.90
28189;DHT22;15471;51.166;4.470;2023-05-23T13:01:04;17.30;99.90
28189;DHT22;15471;51.166;4.470;2023-05-23T13:03:30;17.30;99.90
28189;DHT22;15471;51.166;4.470;2023-05-23T13:05:57;17.40;99.90
28189;DHT22;15471;51.166;4.470;2023-05-23T13:08:24;17.50;99.90
28189;DHT22;15471;51.166;4.470;2023-05-23T13:10:51;17.70;99.90
28189;DHT22;15471;51.166;4.470;2023-05-23T13:13:18;18.20;99.90
28189;DHT22;15471;51.166;4.470;2023-05-23T13:15:51;18.30;99.90
28189;DHT22;15471;51.166;4.470;2023-05-23T13:18:20;18.30;99.90
28189;DHT22;15471;51.166;4.470;2023-05-23T13:20:46;18.40;99.90
28189;DHT22;15471;51.166;4.470;2023-05-23T13:23:20;18.20;99.90
28189;DHT22;15471;51.166;4.470;2023-05-23T13:25:49;18.10;99.90
28189;DHT22;15471;51.166;4.470;2023-05-23T13:28:16;18.30;99.90
28189;DHT22;15471;51.166;4.470;2023-05-23T13:30:42;18.20;99.90
28189;DHT22;15471;51.166;4.470;2023-05-23T13:33:11;18.10;99.90
28189;DHT22;15471;51.166;4.470;2023-05-23T13:35:37;17.90;99.90
28189;DHT22;15471;51.166;4.470;2023-05-23T13:38:05;18.40;99.90
28189;DHT22;15471;51.166;4.470;2023-05-23T13:40:34;18.60;99.90
28189;DHT22;15471;51.166;4.470;2023-05-23T13:43:00;18.50;99.90
28189;DHT22;15471;51.166;4.470;2023-05-23T13:45:27;18.60;99.90
28189;DHT22;15471;51.166;4.470;2023-05-23T13:47:55;18.80;99.90
28189;DHT22;15471;51.166;4.470;2023-05-23T13:50:29;18.60;99.90
28189;DHT22;15471;51.166;4.470;2023-05-23T13:53:02;18.50;99.90
28189;DHT22;15471;51.166;4.470;2023-05-23T15:40:25;21.80;93.60
28189;DHT22;15471;51.166;4.470;2023-05-23T15:42:51;22.50;91.20
28189;DHT22;15471;51.166;4.470;2023-05-23T15:45:17;21.00;92.30
28189;DHT22;15471;51.166;4.470;2023-05-23T15:47:43;21.20;93.40
28189;DHT22;15471;51.166;4.470;2023-05-23T15:50:09;21.70;92.00
28189;DHT22;15471;51.166;4.470;2023-05-23T15:52:35;21.70;92.60
28189;DHT22;15471;51.166;4.470;2023-05-23T15:55:01;22.20;91.50
28189;DHT22;15471;51.166;4.470;2023-05-23T15:57:31;22.50;91.00
28189;DHT22;15471;51.166;4.470;2023-05-23T15:59:58;22.40;89.50
28189;DHT22;15471;51.166;4.470;2023-05-23T16:02:23;22.30;90.20
28189;DHT22;15471;51.166;4.470;2023-05-23T16:04:49;22.90;88.70
28189;DHT22;15471;51.166;4.470;2023-05-23T16:07:16;24.40;84.70
28189;DHT22;15471;51.166;4.470;2023-05-23T16:09:42;25.10;80.10
28189;DHT22;15471;51.166;4.470;2023-05-23T16:12:08;25.30;74.00
28189;DHT22;15471;51.166;4.470;2023-05-23T16:14:34;24.50;76.00
28189;DHT22;15471;51.166;4.470;2023-05-23T16:17:00;23.50;77.70
28189;DHT22;15471;51.166;4.470;2023-05-23T16:19:27;23.70;78.00
28189;DHT22;15471;51.166;4.470;2023-05-23T16:21:56;23.00;78.10
28189;DHT22;15471;51.166;4.470;2023-05-23T16:24:22;22.80;81.90
28189;DHT22;15471;51.166;4.470;2023-05-23T16:26:51;24.10;79.80
28189;DHT22;15471;51.166;4.470;2023-05-23T16:29:17;24.60;74.30
28189;DHT22;15471;51.166;4.470;2023-05-23T16:31:43;24.30;74.00
28189;DHT22;15471;51.166;4.470;2023-05-23T16:34:12;23.00;76.70
28189;DHT22;15471;51.166;4.470;2023-05-23T16:36:38;22.80;79.30
28189;DHT22;15471;51.166;4.470;2023-05-23T16:39:08;22.20;81.00
28189;DHT22;15471;51.166;4.470;2023-05-23T16:41:34;23.30;80.20
28189;DHT22;15471;51.166;4.470;2023-05-23T16:44:03;23.70;75.80
28189;DHT22;15471;51.166;4.470;2023-05-23T16:46:29;23.50;77.00
28189;DHT22;15471;51.166;4.470;2023-05-23T16:48:59;23.00;79.80
28189;DHT22;15471;51.166;4.470;2023-05-23T16:51:29;23.00;78.20
28189;DHT22;15471;51.166;4.470;2023-05-23T16:53:56;22.40;78.40
28189;DHT22;15471;51.166;4.470;2023-05-23T16:56:22;21.80;81.40
28189;DHT22;15471;51.166;4.470;2023-05-23T16:58:48;22.00;82.00
28189;DHT22;15471;51.166;4.470;2023-05-23T17:01:16;21.30;81.00
28189;DHT22;15471;51.166;4.470;2023-05-23T17:03:47;21.00;83.20
28189;DHT22;15471;51.166;4.470;2023-05-23T17:06:14;20.80;85.40
28189;DHT22;15471;51.166;4.470;2023-05-23T17:08:40;21.40;81.70
28189;DHT22;15471;51.166;4.470;2023-05-23T17:11:06;21.00;82.20
28189;DHT22;15471;51.166;4.470;2023-05-23T17:13:33;20.40;85.10
28189;DHT22;15471;51.166;4.470;2023-05-23T17:15:59;20.70;87.60
28189;DHT22;15471;51.166;4.470;2023-05-23T17:18:26;20.80;84.90
28189;DHT22;15471;51.166;4.470;2023-05-23T17:20:52;20.90;85.60
28189;DHT22;15471;51.166;4.470;2023-05-23T17:23:18;20.90;85.20
28189;DHT22;15471;51.166;4.470;2023-05-23T17:25:44;20.70;87.20
28189;DHT22;15471;51.166;4.470;2023-05-23T17:28:11;21.30;86.10
28189;DHT22;15471;51.166;4.470;2023-05-23T17:30:37;20.90;84.50
28189;DHT22;15471;51.166;4.470;2023-05-23T17:33:04;20.00;87.90
28189;DHT22;15471;51.166;4.470;2023-05-23T17:35:30;20.00;88.20
28189;DHT22;15471;51.166;4.470;2023-05-23T17:37:56;19.20;90.40
28189;DHT22;15471;51.166;4.470;2023-05-23T17:40:23;18.40;92.70
28189;DHT22;15471;51.166;4.470;2023-05-23T17:42:50;17.70;94.00
28189;DHT22;15471;51.166;4.470;2023-05-23T17:45:16;17.60;96.10
28189;DHT22;15471;51.166;4.470;2023-05-23T17:47:42;17.60;95.00